Terminal Aerodrome Forecast
Issued by NWS Bismarck, ND

Home | Current Version | Previous Version | Graphics & Text | Print | Product List | Glossary On
Versions: 1 2 3 4 5 6 7 8 9 10 11 12
489
FTUS43 KBIS 271142
TAFISN
TAF
KISN 271142Z 2712/2812 05004KT P6SM -RA OVC015
     FM271700 08008KT P6SM -RA OVC025
     FM272000 09012G22KT P6SM VCSH OVC060
     FM280000 07008KT P6SM OVC090=

USA.gov is the U.S. government's official web portal to all federal, state and local government web resources and services.